Long Beach, CA

5:27 AM PDT on September 02, 2014 (GMT -0700)
Long Beach | Change Station
CLOSE
Current Station
Airport
Location: Long Beach,
Elevation: 39 ft
Nearby Weather Stations

Elev 39 ft 33.81 °N, 118.15 °W | Updated 34 minutes ago

Overcast
Overcast
70 °F
Feels Like 70 °F
N
5
Wind Variable Wind from East

Today
High -- | Low -- °F
--% Chance of Precip.
Yesterday
High -- | Low -- °F
Precip. -- in
6:27 AM 7:17 PM
Waxing Crescent, 51% visible
Pressure 29.84 in
Visibility 10.0 miles
Clouds Overcast 1900 ft
Dew Point 63 °F
Humidity 78%
Rainfall 0.00 in
Snow Depth Not available.
UV 0 out of 12
Pollen 7.00 out of 12
Ozone Good
Flu Activity Not available.
METAR KLGB 021153Z 08004KT 10SM OVC019 21/17 A2984 RMK AO2 SLP104 T02110172 10217 20200 51003

More Conditions Fewer Conditions

Pressure 29.84 in
Visibility 10.0 miles
Clouds Overcast 1900 ft
Dew Point 63 °F
Humidity 78%
Rainfall 0.00 in
Snow Depth Not available.
UV 0 out of 12
Pollen 7.00 out of 12
Ozone Good
Flu Activity Not available.
METAR KLGB 021153Z 08004KT 10SM OVC019 21/17 A2984 RMK AO2 SLP104 T02110172 10217 20200 51003

More Conditions Fewer Conditions

10-Day Weather Forecast

Almanac

Astronomy

Sep. 02, 2014 Rise Set
Actual Time 6:27 AM PDT 7:17 PM PDT
Civil Twilight 6:02 AM PDT 7:42 PM PDT
Nautical Twilight 5:32 AM PDT 8:12 PM PDT
Astronomical Twilight 5:01 AM PDT 8:43 PM PDT
Moon 1:56 PM PDT No Moon Set
Length of Visible Light 13h 40m
Length of Day
12h 49m
Tomorrow will be 2m 1s shorter.
Waxing Crescent, 51% of the Moon is Illuminated
Today
Waxing Crescent
Sep 8
Full
Sep 15
Last Quarter
Sep 24
New
Oct 1
First Quarter

Today's Extremes

State Highs State Lows

Community

WunderPhotos

Upload Photos

1,749,639 photos uploaded!

WunderBlogs® & News

By Dr. Jeff Masters
Director of Meteorology, Weather Underground
By Kari Strenfel
Meteorologist, Weather Underground
By Christopher C. Burt
Weather Historian, Weather Underground
September 2, 2014
September 2, 2014
September 2, 2014

Nearby

Air Quality

  Air Quality AQ Index Pollutant
Yesterday Good
OZONE
Current Good
OZONE
Tuesday Good
PM10
Tuesday Good
OZONE
Tuesday Good
CO
Tuesday Good
NO2

Snow Depth

Station Depth Elevation
Leavitt Lake 1 in 9400 ft
Sonora Pass 0 in 8800 ft
Leavitt Meadows 1 in 7200 ft
Blue Lakes 0 in 8000 ft
Monitor Pass 0 in 8350 ft

Earthquake Activity

City Distance Mag. Time & Date
Malibu, California 48 miles 2.5 8:11 AM PDT
2014-08-30
Minimum magnitude displayed is 2.5.

Coastal Water Temperatures

Place Temperature
Santa Monica Pier 71.1 °F
Los Angeles, CA 71.1 °F
La Jolla, CA 71.1 °F

Nearby Weather Stations